sensor_id;sensor_type;location;lat;lon;timestamp;P1;P2;P0
50587;PMS7003;70782;50.514;30.816;2023-09-19T00:00:06;30.60;28.90;18.50
50587;PMS7003;70782;50.514;30.816;2023-09-19T00:01:09;26.30;26.30;18.30
50587;PMS7003;70782;50.514;30.816;2023-09-19T00:02:11;28.20;26.90;19.00
50587;PMS7003;70782;50.514;30.816;2023-09-19T00:03:14;30.70;28.60;19.60
50587;PMS7003;70782;50.514;30.816;2023-09-19T00:04:16;28.90;28.20;18.80
50587;PMS7003;70782;50.514;30.816;2023-09-19T00:05:19;32.40;29.70;19.80
50587;PMS7003;70782;50.514;30.816;2023-09-19T00:06:21;28.40;26.60;18.80
50587;PMS7003;70782;50.514;30.816;2023-09-19T00:07:23;27.90;26.30;19.40
50587;PMS7003;70782;50.514;30.816;2023-09-19T00:08:25;30.70;27.10;18.60
50587;PMS7003;70782;50.514;30.816;2023-09-19T00:09:27;33.40;27.50;18.80
50587;PMS7003;70782;50.514;30.816;2023-09-19T00:10:30;29.80;28.40;18.60
50587;PMS7003;70782;50.514;30.816;2023-09-19T00:11:33;27.50;27.30;18.70
50587;PMS7003;70782;50.514;30.816;2023-09-19T00:12:35;27.90;26.70;17.90
50587;PMS7003;70782;50.514;30.816;2023-09-19T00:13:37;26.67;25.78;18.22
50587;PMS7003;70782;50.514;30.816;2023-09-19T00:14:40;27.60;27.20;18.30
50587;PMS7003;70782;50.514;30.816;2023-09-19T00:15:44;27.80;27.40;18.90
50587;PMS7003;70782;50.514;30.816;2023-09-19T00:16:48;29.00;27.50;18.30
50587;PMS7003;70782;50.514;30.816;2023-09-19T00:17:51;28.20;26.90;19.00
50587;PMS7003;70782;50.514;30.816;2023-09-19T00:18:53;24.40;22.00;16.10
50587;PMS7003;70782;50.514;30.816;2023-09-19T00:19:56;29.30;27.60;18.60
50587;PMS7003;70782;50.514;30.816;2023-09-19T00:20:58;30.56;28.67;20.22
50587;PMS7003;70782;50.514;30.816;2023-09-19T00:22:00;28.80;28.10;19.70
50587;PMS7003;70782;50.514;30.816;2023-09-19T00:23:03;24.90;23.20;17.10
50587;PMS7003;70782;50.514;30.816;2023-09-19T00:24:05;30.10;25.90;18.30
50587;PMS7003;70782;50.514;30.816;2023-09-19T00:25:08;27.00;26.60;18.70
50587;PMS7003;70782;50.514;30.816;2023-09-19T00:26:11;29.50;28.40;19.10
50587;PMS7003;70782;50.514;30.816;2023-09-19T00:27:14;28.36;28.36;19.09
50587;PMS7003;70782;50.514;30.816;2023-09-19T00:28:16;29.20;27.70;18.10
50587;PMS7003;70782;50.514;30.816;2023-09-19T00:29:19;25.09;25.09;17.91
50587;PMS7003;70782;50.514;30.816;2023-09-19T00:30:21;26.70;26.70;19.10
50587;PMS7003;70782;50.514;30.816;2023-09-19T00:31:23;30.20;28.60;18.40
50587;PMS7003;70782;50.514;30.816;2023-09-19T00:32:25;23.00;21.20;11.70
50587;PMS7003;70782;50.514;30.816;2023-09-19T00:33:28;29.10;28.40;18.00
50587;PMS7003;70782;50.514;30.816;2023-09-19T00:34:30;30.90;27.70;19.30
50587;PMS7003;70782;50.514;30.816;2023-09-19T00:35:33;30.90;28.70;19.00
50587;PMS7003;70782;50.514;30.816;2023-09-19T00:36:35;30.40;28.10;19.00
50587;PMS7003;70782;50.514;30.816;2023-09-19T00:37:37;25.00;25.00;18.70
50587;PMS7003;70782;50.514;30.816;2023-09-19T00:38:39;30.30;28.40;18.70
50587;PMS7003;70782;50.514;30.816;2023-09-19T00:39:41;28.11;27.78;19.89
50587;PMS7003;70782;50.514;30.816;2023-09-19T00:40:44;29.00;27.40;19.20
50587;PMS7003;70782;50.514;30.816;2023-09-19T00:41:47;28.30;26.30;17.40
50587;PMS7003;70782;50.514;30.816;2023-09-19T00:42:49;27.70;27.70;18.10
50587;PMS7003;70782;50.514;30.816;2023-09-19T00:43:51;30.00;29.80;19.50
50587;PMS7003;70782;50.514;30.816;2023-09-19T00:44:55;30.80;29.30;19.40
50587;PMS7003;70782;50.514;30.816;2023-09-19T00:45:57;28.60;27.70;19.10
50587;PMS7003;70782;50.514;30.816;2023-09-19T00:47:00;30.10;27.10;18.70
50587;PMS7003;70782;50.514;30.816;2023-09-19T00:48:03;29.91;27.91;18.73
50587;PMS7003;70782;50.514;30.816;2023-09-19T00:49:06;30.91;28.36;19.00
50587;PMS7003;70782;50.514;30.816;2023-09-19T00:50:10;29.20;28.10;18.80
50587;PMS7003;70782;50.514;30.816;2023-09-19T00:51:12;27.00;26.00;17.60
50587;PMS7003;70782;50.514;30.816;2023-09-19T00:52:16;28.40;27.40;19.10
50587;PMS7003;70782;50.514;30.816;2023-09-19T00:53:20;28.80;26.10;19.00
50587;PMS7003;70782;50.514;30.816;2023-09-19T00:54:23;28.70;28.00;19.20
50587;PMS7003;70782;50.514;30.816;2023-09-19T00:55:26;27.60;26.50;19.70
50587;PMS7003;70782;50.514;30.816;2023-09-19T00:56:30;30.20;29.30;18.70
50587;PMS7003;70782;50.514;30.816;2023-09-19T00:57:33;29.40;27.80;19.60
50587;PMS7003;70782;50.514;30.816;2023-09-19T00:58:36;27.50;25.80;18.00
50587;PMS7003;70782;50.514;30.816;2023-09-19T00:59:38;33.50;30.60;20.20
50587;PMS7003;70782;50.514;30.816;2023-09-19T01:00:40;26.90;26.20;18.40
50587;PMS7003;70782;50.514;30.816;2023-09-19T01:01:43;29.30;27.40;18.50
50587;PMS7003;70782;50.514;30.816;2023-09-19T01:02:46;29.20;26.70;17.90
50587;PMS7003;70782;50.514;30.816;2023-09-19T01:03:49;29.80;29.10;19.60
50587;PMS7003;70782;50.514;30.816;2023-09-19T01:04:51;27.20;26.80;18.60
50587;PMS7003;70782;50.514;30.816;2023-09-19T01:05:53;26.10;25.50;18.90
50587;PMS7003;70782;50.514;30.816;2023-09-19T01:06:56;29.60;29.20;19.60
50587;PMS7003;70782;50.514;30.816;2023-09-19T01:07:58;29.60;28.20;18.50
50587;PMS7003;70782;50.514;30.816;2023-09-19T01:09:00;29.10;27.40;19.50
50587;PMS7003;70782;50.514;30.816;2023-09-19T01:10:03;30.60;28.60;19.20
50587;PMS7003;70782;50.514;30.816;2023-09-19T01:11:28;27.80;27.20;18.50
50587;PMS7003;70782;50.514;30.816;2023-09-19T01:12:36;31.50;29.50;19.90
50587;PMS7003;70782;50.514;30.816;2023-09-19T01:14:55;30.50;28.30;19.40
50587;PMS7003;70782;50.514;30.816;2023-09-19T01:16:05;29.40;29.00;19.10
50587;PMS7003;70782;50.514;30.816;2023-09-19T01:17:20;29.40;28.30;18.90
50587;PMS7003;70782;50.514;30.816;2023-09-19T01:18:40;28.10;27.50;19.80
50587;PMS7003;70782;50.514;30.816;2023-09-19T01:26:59;27.30;24.80;16.60
50587;PMS7003;70782;50.514;30.816;2023-09-19T01:29:19;29.50;29.20;18.20
50587;PMS7003;70782;50.514;30.816;2023-09-19T01:30:32;29.50;27.30;16.70
50587;PMS7003;70782;50.514;30.816;2023-09-19T01:31:37;27.00;25.40;15.70
50587;PMS7003;70782;50.514;30.816;2023-09-19T01:32:40;31.20;28.00;20.40
50587;PMS7003;70782;50.514;30.816;2023-09-19T01:34:02;35.30;31.00;19.80
50587;PMS7003;70782;50.514;30.816;2023-09-19T01:35:05;26.80;24.50;17.70
50587;PMS7003;70782;50.514;30.816;2023-09-19T01:36:08;29.50;28.90;20.10
50587;PMS7003;70782;50.514;30.816;2023-09-19T01:37:10;29.90;29.20;19.20
50587;PMS7003;70782;50.514;30.816;2023-09-19T01:38:12;29.90;28.70;19.40
50587;PMS7003;70782;50.514;30.816;2023-09-19T01:39:14;31.11;29.11;19.00
50587;PMS7003;70782;50.514;30.816;2023-09-19T01:40:17;30.90;27.80;19.40
50587;PMS7003;70782;50.514;30.816;2023-09-19T01:44:01;29.80;28.10;17.80
50587;PMS7003;70782;50.514;30.816;2023-09-19T01:45:12;32.90;30.30;20.40
50587;PMS7003;70782;50.514;30.816;2023-09-19T01:46:19;29.30;28.60;19.60
50587;PMS7003;70782;50.514;30.816;2023-09-19T01:47:31;30.40;28.50;19.50
50587;PMS7003;70782;50.514;30.816;2023-09-19T01:48:35;30.80;28.10;18.80
50587;PMS7003;70782;50.514;30.816;2023-09-19T01:49:55;30.50;27.50;18.90
50587;PMS7003;70782;50.514;30.816;2023-09-19T01:51:00;30.20;29.00;19.10
50587;PMS7003;70782;50.514;30.816;2023-09-19T01:52:12;31.10;29.40;20.50
50587;PMS7003;70782;50.514;30.816;2023-09-19T01:53:21;31.00;29.60;21.00
50587;PMS7003;70782;50.514;30.816;2023-09-19T01:54:26;35.80;32.60;21.40
50587;PMS7003;70782;50.514;30.816;2023-09-19T01:55:29;35.40;32.00;21.50
50587;PMS7003;70782;50.514;30.816;2023-09-19T01:56:42;26.30;25.70;19.70
50587;PMS7003;70782;50.514;30.816;2023-09-19T01:57:42;33.60;30.60;20.60
50587;PMS7003;70782;50.514;30.816;2023-09-19T01:58:59;34.40;30.90;21.90
50587;PMS7003;70782;50.514;30.816;2023-09-19T02:00:09;36.10;31.20;21.30
50587;PMS7003;70782;50.514;30.816;2023-09-19T02:01:16;35.70;32.30;21.20
50587;PMS7003;70782;50.514;30.816;2023-09-19T02:02:21;33.00;30.90;19.90
50587;PMS7003;70782;50.514;30.816;2023-09-19T02:03:24;35.30;32.20;19.90
50587;PMS7003;70782;50.514;30.816;2023-09-19T02:04:27;33.91;30.91;21.36
50587;PMS7003;70782;50.514;30.816;2023-09-19T02:05:29;32.80;29.20;19.00
50587;PMS7003;70782;50.514;30.816;2023-09-19T02:06:32;31.00;30.40;20.30
50587;PMS7003;70782;50.514;30.816;2023-09-19T02:07:34;31.80;30.20;19.80
50587;PMS7003;70782;50.514;30.816;2023-09-19T02:08:36;32.40;29.50;19.80
50587;PMS7003;70782;50.514;30.816;2023-09-19T02:09:38;32.20;29.10;19.90
50587;PMS7003;70782;50.514;30.816;2023-09-19T02:10:41;28.00;27.90;18.70
50587;PMS7003;70782;50.514;30.816;2023-09-19T02:11:43;29.30;27.60;19.50
50587;PMS7003;70782;50.514;30.816;2023-09-19T02:12:45;27.40;26.40;19.20
50587;PMS7003;70782;50.514;30.816;2023-09-19T02:13:48;30.36;29.73;19.36
50587;PMS7003;70782;50.514;30.816;2023-09-19T02:14:50;29.20;28.20;19.10
50587;PMS7003;70782;50.514;30.816;2023-09-19T02:15:52;33.33;29.67;20.00
50587;PMS7003;70782;50.514;30.816;2023-09-19T02:16:54;29.90;29.60;20.60
50587;PMS7003;70782;50.514;30.816;2023-09-19T02:17:57;28.70;27.30;19.40
50587;PMS7003;70782;50.514;30.816;2023-09-19T02:18:59;32.40;30.40;21.20
50587;PMS7003;70782;50.514;30.816;2023-09-19T02:20:01;28.80;27.50;20.90
50587;PMS7003;70782;50.514;30.816;2023-09-19T02:21:04;31.90;30.30;20.50
50587;PMS7003;70782;50.514;30.816;2023-09-19T02:22:06;29.10;27.60;18.50
50587;PMS7003;70782;50.514;30.816;2023-09-19T02:23:09;28.60;26.20;18.60
50587;PMS7003;70782;50.514;30.816;2023-09-19T02:24:11;29.30;28.00;19.40
50587;PMS7003;70782;50.514;30.816;2023-09-19T02:25:15;32.50;29.10;19.60
50587;PMS7003;70782;50.514;30.816;2023-09-19T02:26:17;26.80;26.60;18.00
50587;PMS7003;70782;50.514;30.816;2023-09-19T02:27:19;29.90;29.00;19.10
50587;PMS7003;70782;50.514;30.816;2023-09-19T02:28:21;30.33;29.11;20.33
50587;PMS7003;70782;50.514;30.816;2023-09-19T02:29:23;29.60;28.40;20.00
50587;PMS7003;70782;50.514;30.816;2023-09-19T02:30:25;26.67;26.67;16.33
50587;PMS7003;70782;50.514;30.816;2023-09-19T02:31:27;30.50;28.50;19.40
50587;PMS7003;70782;50.514;30.816;2023-09-19T02:32:30;30.20;29.60;20.00
50587;PMS7003;70782;50.514;30.816;2023-09-19T02:33:32;30.18;28.82;19.82
50587;PMS7003;70782;50.514;30.816;2023-09-19T02:34:35;28.90;28.40;19.40
50587;PMS7003;70782;50.514;30.816;2023-09-19T02:35:38;30.36;27.09;18.82
50587;PMS7003;70782;50.514;30.816;2023-09-19T02:36:40;25.80;25.30;18.40
50587;PMS7003;70782;50.514;30.816;2023-09-19T02:37:42;30.10;28.70;19.60
50587;PMS7003;70782;50.514;30.816;2023-09-19T02:38:44;31.20;28.30;19.70
50587;PMS7003;70782;50.514;30.816;2023-09-19T02:39:47;29.80;29.60;20.10
50587;PMS7003;70782;50.514;30.816;2023-09-19T02:40:49;31.70;29.90;20.10
50587;PMS7003;70782;50.514;30.816;2023-09-19T02:41:51;32.10;28.70;19.30
50587;PMS7003;70782;50.514;30.816;2023-09-19T02:42:53;29.10;27.20;17.80
50587;PMS7003;70782;50.514;30.816;2023-09-19T02:43:58;30.00;29.40;19.90
50587;PMS7003;70782;50.514;30.816;2023-09-19T02:45:02;30.50;28.90;19.80
50587;PMS7003;70782;50.514;30.816;2023-09-19T02:46:04;31.10;29.20;19.30
50587;PMS7003;70782;50.514;30.816;2023-09-19T02:47:06;29.70;28.00;18.80
50587;PMS7003;70782;50.514;30.816;2023-09-19T02:48:09;30.40;28.80;19.80
50587;PMS7003;70782;50.514;30.816;2023-09-19T02:49:11;34.10;30.70;20.50
50587;PMS7003;70782;50.514;30.816;2023-09-19T02:50:13;29.80;27.80;19.30
50587;PMS7003;70782;50.514;30.816;2023-09-19T02:51:16;34.80;32.00;20.90
50587;PMS7003;70782;50.514;30.816;2023-09-19T02:52:18;32.60;30.90;21.70
50587;PMS7003;70782;50.514;30.816;2023-09-19T02:53:20;33.90;31.40;21.30
50587;PMS7003;70782;50.514;30.816;2023-09-19T02:54:22;31.78;30.11;20.89
50587;PMS7003;70782;50.514;30.816;2023-09-19T02:55:25;30.40;29.50;20.90
50587;PMS7003;70782;50.514;30.816;2023-09-19T02:56:27;36.00;31.40;21.00
50587;PMS7003;70782;50.514;30.816;2023-09-19T02:57:29;33.00;30.00;21.50
50587;PMS7003;70782;50.514;30.816;2023-09-19T02:58:31;35.00;32.00;21.00
50587;PMS7003;70782;50.514;30.816;2023-09-19T02:59:34;33.18;30.91;21.55
50587;PMS7003;70782;50.514;30.816;2023-09-19T03:00:36;33.56;30.00;21.56
50587;PMS7003;70782;50.514;30.816;2023-09-19T03:01:39;34.30;30.70;20.80
50587;PMS7003;70782;50.514;30.816;2023-09-19T03:02:41;32.80;31.60;21.40
50587;PMS7003;70782;50.514;30.816;2023-09-19T03:03:44;33.80;31.70;21.70
50587;PMS7003;70782;50.514;30.816;2023-09-19T03:04:46;34.70;31.30;21.30
50587;PMS7003;70782;50.514;30.816;2023-09-19T03:05:48;33.90;30.80;20.50
50587;PMS7003;70782;50.514;30.816;2023-09-19T03:06:53;32.10;29.70;19.50
50587;PMS7003;70782;50.514;30.816;2023-09-19T03:07:55;34.40;31.00;18.70
50587;PMS7003;70782;50.514;30.816;2023-09-19T03:08:58;34.30;32.60;20.60
50587;PMS7003;70782;50.514;30.816;2023-09-19T03:10:00;34.50;30.30;20.20
50587;PMS7003;70782;50.514;30.816;2023-09-19T03:11:05;33.11;31.11;20.44
50587;PMS7003;70782;50.514;30.816;2023-09-19T03:12:08;36.60;32.30;22.10
50587;PMS7003;70782;50.514;30.816;2023-09-19T03:13:11;37.80;33.30;22.00
50587;PMS7003;70782;50.514;30.816;2023-09-19T03:14:14;36.60;32.90;22.10
50587;PMS7003;70782;50.514;30.816;2023-09-19T03:15:16;36.90;33.30;22.80
50587;PMS7003;70782;50.514;30.816;2023-09-19T03:16:19;36.80;32.70;21.20
50587;PMS7003;70782;50.514;30.816;2023-09-19T03:17:21;37.40;32.80;22.10
50587;PMS7003;70782;50.514;30.816;2023-09-19T03:18:24;34.40;30.70;20.60
50587;PMS7003;70782;50.514;30.816;2023-09-19T03:19:27;36.60;32.90;21.40
50587;PMS7003;70782;50.514;30.816;2023-09-19T03:20:29;30.40;29.90;21.30
50587;PMS7003;70782;50.514;30.816;2023-09-19T03:21:32;33.60;31.50;22.50
50587;PMS7003;70782;50.514;30.816;2023-09-19T03:22:35;35.00;32.27;21.00
50587;PMS7003;70782;50.514;30.816;2023-09-19T03:23:37;32.90;31.30;21.40
50587;PMS7003;70782;50.514;30.816;2023-09-19T03:24:40;32.40;30.10;20.30
50587;PMS7003;70782;50.514;30.816;2023-09-19T03:25:42;30.40;29.60;19.80
50587;PMS7003;70782;50.514;30.816;2023-09-19T03:26:45;32.50;30.60;20.70
50587;PMS7003;70782;50.514;30.816;2023-09-19T03:27:47;34.90;31.80;21.00
50587;PMS7003;70782;50.514;30.816;2023-09-19T03:28:49;33.70;31.40;21.30
50587;PMS7003;70782;50.514;30.816;2023-09-19T03:29:51;34.00;31.30;21.10
50587;PMS7003;70782;50.514;30.816;2023-09-19T03:31:03;33.50;31.50;21.50
50587;PMS7003;70782;50.514;30.816;2023-09-19T03:32:08;33.70;31.60;22.40
50587;PMS7003;70782;50.514;30.816;2023-09-19T03:33:11;30.30;29.70;20.60
50587;PMS7003;70782;50.514;30.816;2023-09-19T03:34:14;35.40;31.20;21.20
50587;PMS7003;70782;50.514;30.816;2023-09-19T03:35:17;32.20;31.00;21.40
50587;PMS7003;70782;50.514;30.816;2023-09-19T03:36:20;31.80;30.90;21.80
50587;PMS7003;70782;50.514;30.816;2023-09-19T03:37:22;35.30;32.90;21.80
50587;PMS7003;70782;50.514;30.816;2023-09-19T03:38:25;37.10;32.10;21.50
50587;PMS7003;70782;50.514;30.816;2023-09-19T03:39:27;33.80;31.90;20.90
50587;PMS7003;70782;50.514;30.816;2023-09-19T03:40:29;36.20;31.70;21.40
50587;PMS7003;70782;50.514;30.816;2023-09-19T03:41:31;34.10;32.00;22.80
50587;PMS7003;70782;50.514;30.816;2023-09-19T03:42:34;32.50;30.10;19.40
50587;PMS7003;70782;50.514;30.816;2023-09-19T03:43:37;33.00;30.27;20.82
50587;PMS7003;70782;50.514;30.816;2023-09-19T03:44:40;31.10;30.20;20.40
50587;PMS7003;70782;50.514;30.816;2023-09-19T03:45:42;33.90;31.20;20.50
50587;PMS7003;70782;50.514;30.816;2023-09-19T03:46:44;31.00;30.20;20.80
50587;PMS7003;70782;50.514;30.816;2023-09-19T03:47:46;31.40;30.70;20.80
50587;PMS7003;70782;50.514;30.816;2023-09-19T03:48:50;34.70;31.70;21.70
50587;PMS7003;70782;50.514;30.816;2023-09-19T03:49:52;35.80;32.30;23.10
50587;PMS7003;70782;50.514;30.816;2023-09-19T03:50:54;38.00;31.90;21.70
50587;PMS7003;70782;50.514;30.816;2023-09-19T03:51:57;38.30;34.20;22.80
50587;PMS7003;70782;50.514;30.816;2023-09-19T03:52:59;33.60;31.40;21.50
50587;PMS7003;70782;50.514;30.816;2023-09-19T03:54:01;36.50;33.00;22.50
50587;PMS7003;70782;50.514;30.816;2023-09-19T03:55:04;33.30;31.40;21.10
50587;PMS7003;70782;50.514;30.816;2023-09-19T03:56:07;33.40;31.60;21.60
50587;PMS7003;70782;50.514;30.816;2023-09-19T03:57:09;36.70;32.40;22.50
50587;PMS7003;70782;50.514;30.816;2023-09-19T03:58:11;38.70;33.00;22.60
50587;PMS7003;70782;50.514;30.816;2023-09-19T03:59:14;35.20;31.90;20.80
50587;PMS7003;70782;50.514;30.816;2023-09-19T04:00:16;35.90;32.30;22.10
50587;PMS7003;70782;50.514;30.816;2023-09-19T04:01:19;31.40;30.20;22.50
50587;PMS7003;70782;50.514;30.816;2023-09-19T04:02:23;34.80;32.10;21.70
50587;PMS7003;70782;50.514;30.816;2023-09-19T04:03:25;32.30;30.50;20.60
50587;PMS7003;70782;50.514;30.816;2023-09-19T04:04:27;35.10;32.10;21.70
50587;PMS7003;70782;50.514;30.816;2023-09-19T04:05:29;35.50;33.20;22.50
50587;PMS7003;70782;50.514;30.816;2023-09-19T04:06:31;39.30;33.80;22.00
50587;PMS7003;70782;50.514;30.816;2023-09-19T04:07:33;36.80;33.30;22.60
50587;PMS7003;70782;50.514;30.816;2023-09-19T04:08:36;35.40;32.30;21.00
50587;PMS7003;70782;50.514;30.816;2023-09-19T04:09:38;30.22;27.89;18.67
50587;PMS7003;70782;50.514;30.816;2023-09-19T04:10:43;34.10;30.10;20.30
50587;PMS7003;70782;50.514;30.816;2023-09-19T04:11:45;36.90;32.90;22.60
50587;PMS7003;70782;50.514;30.816;2023-09-19T04:14:02;40.40;34.80;23.30
50587;PMS7003;70782;50.514;30.816;2023-09-19T04:15:05;37.30;33.60;22.80
50587;PMS7003;70782;50.514;30.816;2023-09-19T04:16:08;37.20;33.30;22.70
50587;PMS7003;70782;50.514;30.816;2023-09-19T04:17:10;34.20;32.40;21.70
50587;PMS7003;70782;50.514;30.816;2023-09-19T04:18:13;38.60;34.00;22.50
50587;PMS7003;70782;50.514;30.816;2023-09-19T04:19:15;38.00;34.56;22.67
50587;PMS7003;70782;50.514;30.816;2023-09-19T04:20:18;39.90;35.20;23.20
50587;PMS7003;70782;50.514;30.816;2023-09-19T04:21:20;39.36;34.27;23.36
50587;PMS7003;70782;50.514;30.816;2023-09-19T04:22:22;45.00;37.30;25.10
50587;PMS7003;70782;50.514;30.816;2023-09-19T04:23:25;41.20;35.30;23.70
50587;PMS7003;70782;50.514;30.816;2023-09-19T04:24:27;39.40;35.20;23.50
50587;PMS7003;70782;50.514;30.816;2023-09-19T04:25:30;38.90;34.10;22.60
50587;PMS7003;70782;50.514;30.816;2023-09-19T04:26:32;42.00;35.22;23.00
50587;PMS7003;70782;50.514;30.816;2023-09-19T04:27:34;32.10;30.60;21.60
50587;PMS7003;70782;50.514;30.816;2023-09-19T04:28:36;33.20;30.70;21.20
50587;PMS7003;70782;50.514;30.816;2023-09-19T04:29:38;34.44;30.78;21.22
50587;PMS7003;70782;50.514;30.816;2023-09-19T04:30:40;39.10;35.00;22.70
50587;PMS7003;70782;50.514;30.816;2023-09-19T04:31:43;49.90;41.50;28.60
50587;PMS7003;70782;50.514;30.816;2023-09-19T04:32:45;46.33;38.89;27.44
50587;PMS7003;70782;50.514;30.816;2023-09-19T04:33:47;47.67;38.00;25.33
50587;PMS7003;70782;50.514;30.816;2023-09-19T04:34:49;34.70;32.60;22.20
50587;PMS7003;70782;50.514;30.816;2023-09-19T04:35:51;30.40;29.60;21.40
50587;PMS7003;70782;50.514;30.816;2023-09-19T04:36:53;32.60;30.70;21.40
50587;PMS7003;70782;50.514;30.816;2023-09-19T04:37:55;33.50;31.40;21.50
50587;PMS7003;70782;50.514;30.816;2023-09-19T04:38:57;31.00;30.60;20.70
50587;PMS7003;70782;50.514;30.816;2023-09-19T04:39:59;32.67;31.67;22.00
50587;PMS7003;70782;50.514;30.816;2023-09-19T04:41:01;31.00;30.30;20.10
50587;PMS7003;70782;50.514;30.816;2023-09-19T04:42:04;32.40;30.90;20.80
50587;PMS7003;70782;50.514;30.816;2023-09-19T04:43:06;36.30;33.20;22.60
50587;PMS7003;70782;50.514;30.816;2023-09-19T04:44:08;37.00;34.00;21.90
50587;PMS7003;70782;50.514;30.816;2023-09-19T04:45:10;31.22;30.00;19.78
50587;PMS7003;70782;50.514;30.816;2023-09-19T04:46:13;29.00;27.18;19.36
50587;PMS7003;70782;50.514;30.816;2023-09-19T04:47:15;28.10;26.60;18.40
50587;PMS7003;70782;50.514;30.816;2023-09-19T04:48:18;29.40;28.00;19.50
50587;PMS7003;70782;50.514;30.816;2023-09-19T04:49:20;31.20;28.20;20.10
50587;PMS7003;70782;50.514;30.816;2023-09-19T04:50:22;34.10;30.50;20.20
50587;PMS7003;70782;50.514;30.816;2023-09-19T04:51:24;27.90;26.70;18.60
50587;PMS7003;70782;50.514;30.816;2023-09-19T04:52:26;32.20;30.10;19.70
50587;PMS7003;70782;50.514;30.816;2023-09-19T04:53:28;38.70;32.00;21.20
50587;PMS7003;70782;50.514;30.816;2023-09-19T04:54:30;38.30;33.10;23.00
50587;PMS7003;70782;50.514;30.816;2023-09-19T04:55:32;31.50;29.50;20.80
50587;PMS7003;70782;50.514;30.816;2023-09-19T04:56:35;33.22;29.89;19.67
50587;PMS7003;70782;50.514;30.816;2023-09-19T04:57:37;30.50;28.30;19.50
50587;PMS7003;70782;50.514;30.816;2023-09-19T04:58:39;29.30;28.90;18.90
50587;PMS7003;70782;50.514;30.816;2023-09-19T04:59:41;28.30;27.60;17.80
50587;PMS7003;70782;50.514;30.816;2023-09-19T05:00:43;26.50;25.70;17.00
50587;PMS7003;70782;50.514;30.816;2023-09-19T05:01:45;23.40;21.10;15.30
50587;PMS7003;70782;50.514;30.816;2023-09-19T05:04:17;23.70;22.60;14.40
50587;PMS7003;70782;50.514;30.816;2023-09-19T05:05:19;30.30;29.10;19.50
50587;PMS7003;70782;50.514;30.816;2023-09-19T05:06:22;30.30;29.10;19.90
50587;PMS7003;70782;50.514;30.816;2023-09-19T05:07:24;31.00;29.90;20.90
50587;PMS7003;70782;50.514;30.816;2023-09-19T05:08:26;33.10;31.20;19.90
50587;PMS7003;70782;50.514;30.816;2023-09-19T05:09:28;33.90;30.10;18.80
50587;PMS7003;70782;50.514;30.816;2023-09-19T05:10:31;32.10;29.40;19.80
50587;PMS7003;70782;50.514;30.816;2023-09-19T05:11:34;26.30;24.30;16.40
50587;PMS7003;70782;50.514;30.816;2023-09-19T05:12:36;31.80;29.40;19.40
50587;PMS7003;70782;50.514;30.816;2023-09-19T05:13:39;30.60;29.70;19.40
50587;PMS7003;70782;50.514;30.816;2023-09-19T05:14:41;28.50;26.70;17.80
50587;PMS7003;70782;50.514;30.816;2023-09-19T05:15:44;28.80;27.30;19.20
50587;PMS7003;70782;50.514;30.816;2023-09-19T05:16:46;24.33;24.33;18.33
50587;PMS7003;70782;50.514;30.816;2023-09-19T05:17:49;25.70;24.60;17.20
50587;PMS7003;70782;50.514;30.816;2023-09-19T05:18:54;27.50;27.30;18.90
50587;PMS7003;70782;50.514;30.816;2023-09-19T05:19:56;29.00;25.50;17.10
50587;PMS7003;70782;50.514;30.816;2023-09-19T05:21:01;26.64;26.36;18.18
50587;PMS7003;70782;50.514;30.816;2023-09-19T05:22:06;29.50;28.80;20.40
50587;PMS7003;70782;50.514;30.816;2023-09-19T05:23:08;33.10;29.70;19.70
50587;PMS7003;70782;50.514;30.816;2023-09-19T05:24:10;30.40;27.40;18.10
50587;PMS7003;70782;50.514;30.816;2023-09-19T05:25:12;30.00;27.10;17.80
50587;PMS7003;70782;50.514;30.816;2023-09-19T05:26:14;31.56;30.56;20.33
50587;PMS7003;70782;50.514;30.816;2023-09-19T05:27:17;39.11;33.22;21.78
50587;PMS7003;70782;50.514;30.816;2023-09-19T05:28:19;37.50;32.70;21.70
50587;PMS7003;70782;50.514;30.816;2023-09-19T05:29:21;37.33;33.22;21.22
50587;PMS7003;70782;50.514;30.816;2023-09-19T05:30:23;32.50;30.80;20.90
50587;PMS7003;70782;50.514;30.816;2023-09-19T05:31:26;32.80;30.20;19.70
50587;PMS7003;70782;50.514;30.816;2023-09-19T05:32:29;31.40;28.80;19.70
50587;PMS7003;70782;50.514;30.816;2023-09-19T05:33:31;30.30;28.10;19.50
50587;PMS7003;70782;50.514;30.816;2023-09-19T05:34:33;27.80;25.60;17.10
50587;PMS7003;70782;50.514;30.816;2023-09-19T05:35:36;21.60;19.30;11.40
50587;PMS7003;70782;50.514;30.816;2023-09-19T05:36:38;24.60;24.40;16.50
50587;PMS7003;70782;50.514;30.816;2023-09-19T05:37:40;26.56;26.44;18.67
50587;PMS7003;70782;50.514;30.816;2023-09-19T05:38:42;29.00;27.11;17.11
50587;PMS7003;70782;50.514;30.816;2023-09-19T05:39:44;27.80;26.40;19.30
50587;PMS7003;70782;50.514;30.816;2023-09-19T05:40:47;24.40;23.40;17.10
50587;PMS7003;70782;50.514;30.816;2023-09-19T05:41:49;29.60;29.00;19.60
50587;PMS7003;70782;50.514;30.816;2023-09-19T05:42:51;31.90;28.70;18.90
50587;PMS7003;70782;50.514;30.816;2023-09-19T05:43:53;29.56;28.22;18.44
50587;PMS7003;70782;50.514;30.816;2023-09-19T05:44:56;25.60;25.20;18.90
50587;PMS7003;70782;50.514;30.816;2023-09-19T05:45:59;27.30;25.70;18.70
50587;PMS7003;70782;50.514;30.816;2023-09-19T05:47:08;27.90;27.60;18.70
50587;PMS7003;70782;50.514;30.816;2023-09-19T05:49:21;41.50;35.50;24.30
50587;PMS7003;70782;50.514;30.816;2023-09-19T05:50:23;38.10;33.80;23.10
50587;PMS7003;70782;50.514;30.816;2023-09-19T05:51:25;33.70;31.40;20.00
50587;PMS7003;70782;50.514;30.816;2023-09-19T05:52:28;27.30;26.40;19.20
50587;PMS7003;70782;50.514;30.816;2023-09-19T05:54:46;25.10;24.90;18.00
50587;PMS7003;70782;50.514;30.816;2023-09-19T05:55:48;27.30;26.30;18.00
50587;PMS7003;70782;50.514;30.816;2023-09-19T05:56:50;25.80;23.50;16.80
50587;PMS7003;70782;50.514;30.816;2023-09-19T05:57:52;25.80;25.50;18.60
50587;PMS7003;70782;50.514;30.816;2023-09-19T05:58:55;27.20;25.80;18.60
50587;PMS7003;70782;50.514;30.816;2023-09-19T05:59:57;25.55;25.27;18.82
50587;PMS7003;70782;50.514;30.816;2023-09-19T06:01:00;27.60;26.80;19.00
50587;PMS7003;70782;50.514;30.816;2023-09-19T06:02:02;26.00;25.40;18.60
50587;PMS7003;70782;50.514;30.816;2023-09-19T06:03:05;27.60;24.80;17.30
50587;PMS7003;70782;50.514;30.816;2023-09-19T06:04:07;23.70;23.20;15.60
50587;PMS7003;70782;50.514;30.816;2023-09-19T06:05:09;25.70;25.00;18.70
50587;PMS7003;70782;50.514;30.816;2023-09-19T06:06:11;25.60;25.20;16.60